Восточная Россия

Макрорегион "Дальконтроль" предоставляет диспетчерское обслуживание виртуального воздушного движения сети "VATSIM" в РПИ Хабаровск (UHHH), Якутск (UEEE), Магадан (UHMM) на диспетчерском пункте RU-ERC_FSS с позывным "Дальконтроль" на всех высотах.

Лого Восточная Россия
Руководство

Sergey Balandin

Куратор
Контакты

FSS региона
Обозначение
RU-ERC_FSS
Позывной
Дальконтроль
Частота
135.550
Примечание
Top-down
Инструкторы региона
Denis Makosov * (Unknown)
Ivan Aksenenko (Instructor)
Maxim Osmolovskiy * (Controller)
Nikolay Yamushev * (Controller)
Sergey Balandin (Senior Instructor)
Включает в себя

РПИ Магадан
РПИ Хабаровск
РПИ Якутск

Диспетчеры региона

Диспетчер Рейтинг Допуски *
Ashot Hakobyan Controller UEEE_CTR , UHHH_CTR , UHMM_CTR
Lihan Bao Controller UEEE_CTR , UHHH_CTR , UHMM_CTR , UHWW_GND
Yuriy Kolomeytsev Controller UHMM_CTR
Alex Kalchenko Senior Student UHMM_CTR  *
Georgii Gamsakhurdiia Controller UHHH_CTR
Igor Melnick Supervisor UHHH_CTR
Ivan Aksenenko Instructor UHHH_CTR
Kirill Ivanov Controller UHHH_CTR
Konstantin Gorbunov Controller UHHH_CTR
Konstantin Gordeev Controller UHMM_CTR
Maxim Korobko Senior Student UHHH_CTR  *, UEEE_APP, UHPP_APP, UHMM_APP
Maxim Osmolovskiy Controller UEEE_CTR , UHHH_CTR , UHMM_CTR
Mikhail Gogolev Instructor UHMM_CTR
Nikolay Yamushev Controller UHHH_CTR
Sergey Balandin Senior Instructor UEEE_CTR , UHHH_CTR , UHMM_CTR
Andrey Smagin Student UHHH_GND
Daniel Cherednichenko Student 2 UHHH_R_APP*, UHSS_TWR, UHWW_TWR, UHMM_TWR, UHPP_TWR
Daniil Lutchenko Student UHWW_GND
Denis Fateev Student UHHH_GND
Dima Zemlansky Student UHHH_GND
Egor Garifulin Student 2 UEEE_TWR!!!, UHHH_TWR, UHWW_TWR, UHSS_TWR, UHMM_TWR, UHPP_TWR
Evgenii Semendiaev Student UHHH_TWR*
Ivan Pivovarov Student UEEE_GND, UHWW_TWR*, UHPP_GND
Kirill Babinsev Student 2 UHSS_TWR
Kristina Boitsova Student UHHH_GND
Maxim Sukhorukov Student 2 UHHH_TWR
Michail Shlyachkov Student UEEE_GND*
Nikita Brynkov Student 2 UEEE_TWR, UHSS_R_APP*, UHWW_TWR, UHMM_TWR
Nikita Zikeev Senior Student UEEE_APP, UHWW_APP, UHSS_R_APP, UHMM_APP, UHPP_APP
Nikolai Sholom Student UHHH_GND
Olga Ipatova Student UHHH_GND
Roman Vorontsov Student UHHH_GND
Sergey Voinov Student 2 UHHH_TWR!!!
Stepan Paliy Student UHHH_GND*
Vadim Kotelenec Senior Student UHHH_APP
Valeriya Manzhesova Student UHHH_GND
VLAD Potrivaev Student UHHH_GND

Аэропорты региона

ICAO Город Название Погода
UHMA Анадырь Угольный UHMA 100700Z 35005MPS 3900 -SN SCT019 OVC029 M12/M14 Q1000 R01/////// NOSIG RMK MID 35004MPS END R01/34003G06MPS QFE746/0995
UHBB Благовещенск Игнатьево UHBB 100730Z 27001MPS 9999 FEW033 M17/M21 Q1015 R36/810260 NOSIG RMK QFE743/0991
UHWW Владивосток Владивосток UHWW 100730Z 03004MPS 9999 NSC M04/M15 Q1020 R25L/0///70 NOSIG RMK QFE764
UHKD Комсомольск-на-Амуре Дзёмги
UHKK Комсомольск-на-Амуре Хурба
UERL Ленск Ленск
UHMM Магадан Магадан UHMM 100730Z 00000MPS 9999 SCT040 M26/M29 Q1003 R10/89//35 NOSIG RMK QFE737 R28/09001MPS
UERR Мирный Мирный UERR 100730Z 28003MPS 9999 -SN NSC M30/M33 Q1006 R25/820340 NOSIG RMK QFE724/0965
UELL Нерюнгри Чульман
UHNN Николаевск-на-Амуре Николаевск-на-Амуре
UHOO Охотск Охотск
UHMP Певек Певек
UHPP Петропавловск-Камчатский Елизово UHPP 100700Z VRB01MPS 9999 FEW050 M10/M14 Q1008 R34L/710160 NOSIG RMK QFE752/1003
UHMD Провидения Бухта Провидения
UHKG Советская Гавань Каменный Ручей
UHKM Советская Гавань Май-Гатка
UEST Тикси Тикси
UERP Удачный Полярный UERP 100700Z 28003MPS 8000 -SN BKN100 M35/M38 Q1005 NOSIG RMK QFE710
UHHH Хабаровск Хабаровск UHHH 100730Z 24008MPS CAVOK M12/M17 Q1015 R23R/090060 R23L/850350 NOSIG RMK QFE755/1007
UESS Черский Черский
UHSS Южно-Сахалинск Хомутово UHSS 100730Z 19002MPS 9999 FEW040CB M06/M09 Q1012 R01/70D NOSIG RMK QFE758/1011
UEEE Якутск Якутск UEEE 100730Z 01002MPS 2100 -SN BR NSC M40/M44 Q1010 R23L/490150 NOSIG RMK QFE749
UHNA Аян Аян
UHNB Богородское Богородское
UHSB Буревестник Буревестник
UHHD Дальнереченск Дальнереченск
UHBE Зея Зея
UHSO Зональное Зональное
UHWK Кавалерово Кавалерово
UHEK Купол Купол
UHSI Курильск Итуруп
UHBI Магдагачи Магдагачи
UHSN Ноглики Ноглики
UHSH Оха Новостройка
UHWP Пластун Пластун
UHBS Свободный Свободный
UHBW Тында Тында
UEMU Усть-Мая Усть-Мая
UHHT Хабаровск Хабаровск МВЛ
UHHY Чумикан Чумикан
UHSK Шахтерск Шахтёрск
UHBP Экимчан Экимчан
UHSM Южно-Курильск Менделеево